»·PEaware :: N334CS KEUG-KBFI

N334CS :: KEUG-KBFI

FLIGHT INFORMATION

Flight Status: Arrived
Operator: Privately registered:
United States
More flights under this callsign
Pilot: Anonymous 18083 (18083)
Aircraft: Unknown
(SF50)
More flights by this aircraft type
Origin: KEUG Mahlon Sweet
United States
Destination: KBFI Boeing Field/King Co Intl
United States
More flights between these airports :: More routes between these airports
Route: +TURNO BTG MALAY SEA
File this flight plan on PilotEdge
Remarks: Sample flight plan
Altitude:
(Current/Filed)
24,000ft
Speed:
(Current/Filed)
150kts
Departed: 11-Jan-19 08:44 PM
Arrived: 11-Jan-19 09:40 PM
Distance/Time
Traveled:
208nm/0:56
Distance/Time
To Go:
Arrived

Flight Plot

Page will automatically refresh every two minutes.

Flight plan parsing failed; only flown route is shown


Map Options




Map Legend


Flown Route
Filed Route
Departure Airport
Arrival Airport
Navaid (VOR, NDB)
Fix

Horizontal Profiles

Position Reports

Time Latitude Longitude Heading Altitude Ground
Speed
11-Jan-19 20:28 44.116875 -123.215697 218 369ft 0kts
11-Jan-19 20:29 44.116875 -123.215697 218 369ft 0kts
11-Jan-19 20:30 44.116875 -123.215697 218 369ft 0kts
11-Jan-19 20:31 44.116875 -123.215697 218 369ft 0kts
11-Jan-19 20:32 44.116875 -123.215697 218 369ft 0kts
11-Jan-19 20:33 44.116875 -123.215697 218 369ft 0kts
11-Jan-19 20:34 44.116875 -123.215697 218 369ft 0kts
11-Jan-19 20:35 44.116839 -123.215774 253 369ft 2kts
11-Jan-19 20:36 44.115466 -123.216093 74 369ft 3kts
11-Jan-19 20:37 44.113373 -123.216902 180 368ft 16kts
11-Jan-19 20:38 44.109998 -123.216489 104 368ft 4kts
11-Jan-19 20:39 44.110436 -123.215409 357 369ft 8kts
11-Jan-19 20:40 44.112797 -123.216885 0 368ft 11kts
11-Jan-19 20:41 44.113671 -123.217446 271 367ft 0kts
11-Jan-19 20:42 44.113858 -123.218802 333 365ft 11kts
11-Jan-19 20:43 44.131252 -123.218619 8 882ft 110kts
11-Jan-19 20:44 44.161467 -123.206695 12 2536ft 119kts
11-Jan-19 20:45 44.195064 -123.203096 355 4152ft 125kts
11-Jan-19 20:46 44.229556 -123.194453 10 5746ft 128kts
11-Jan-19 20:47 44.264477 -123.180911 9 7090ft 140kts
11-Jan-19 20:48 44.304170 -123.165411 10 8299ft 156kts
11-Jan-19 20:49 44.347216 -123.148572 12 9494ft 166kts
11-Jan-19 20:50 44.392615 -123.130792 14 10595ft 176kts
11-Jan-19 20:51 44.441870 -123.111452 17 11529ft 203kts
11-Jan-19 20:52 44.502855 -123.087461 17 12575ft 250kts
11-Jan-19 20:53 44.574053 -123.059413 17 13603ft 279kts
11-Jan-19 20:54 44.650874 -123.029064 17 14617ft 295kts
11-Jan-19 20:55 44.725796 -122.999385 17 15569ft 302kts
11-Jan-19 20:56 44.806747 -122.967225 18 16581ft 305kts
11-Jan-19 20:57 44.886284 -122.935768 18 18058ft 290kts
11-Jan-19 20:58 44.962095 -122.905911 18 19568ft 277kts
11-Jan-19 20:59 45.034247 -122.877411 18 21081ft 263kts
11-Jan-19 21:00 45.102439 -122.850413 17 22593ft 247kts
11-Jan-19 21:01 45.165926 -122.825212 17 23955ft 230kts
11-Jan-19 21:02 45.234007 -122.798115 16 23994ft 278kts
11-Jan-19 21:03 45.313167 -122.766549 16 23994ft 311kts
11-Jan-19 21:04 45.395863 -122.733471 16 24001ft 330kts
11-Jan-19 21:05 45.485794 -122.697380 16 24007ft 341kts
11-Jan-19 21:06 45.577828 -122.660321 16 24009ft 347kts
11-Jan-19 21:07 45.670917 -122.622707 16 24011ft 350kts
11-Jan-19 21:08 45.768702 -122.597662 351 22639ft 363kts
11-Jan-19 21:09 45.867193 -122.621195 348 22012ft 358kts
11-Jan-19 21:10 45.964859 -122.645551 348 22012ft 356kts
11-Jan-19 21:11 46.062123 -122.669890 348 22013ft 355kts
11-Jan-19 21:12 46.159166 -122.694269 348 22006ft 353kts
11-Jan-19 21:13 46.255747 -122.718616 348 22007ft 352kts
11-Jan-19 21:14 46.351939 -122.742949 348 22007ft 352kts
11-Jan-19 21:15 46.448306 -122.748961 15 22008ft 352kts
11-Jan-19 21:16 46.542854 -122.708331 17 20679ft 351kts
11-Jan-19 21:17 46.634924 -122.667841 17 19244ft 342kts
11-Jan-19 21:18 46.724743 -122.628201 17 17811ft 334kts
11-Jan-19 21:19 46.812480 -122.589350 17 16411ft 324kts
11-Jan-19 21:20 46.897287 -122.551664 17 14924ft 315kts
11-Jan-19 21:21 46.979833 -122.514879 16 13993ft 299kts
11-Jan-19 21:22 47.063114 -122.501708 4 14046ft 314kts
11-Jan-19 21:23 47.148968 -122.489682 4 13992ft 306kts
11-Jan-19 21:25 47.233023 -122.477838 4 13676ft 302kts
11-Jan-19 21:26 47.316531 -122.466167 4 12168ft 299kts
11-Jan-19 21:27 47.398415 -122.455726 4 10664ft 293kts
11-Jan-19 21:28 47.478111 -122.447882 4 9296ft 280kts
11-Jan-19 21:29 47.546579 -122.475139 324 7787ft 257kts
11-Jan-19 21:30 47.606208 -122.530779 324 6294ft 251kts
11-Jan-19 21:31 47.663114 -122.584873 324 4790ft 229kts
11-Jan-19 21:32 47.701359 -122.552444 112 3305ft 213kts
11-Jan-19 21:33 47.671001 -122.483714 124 3001ft 186kts
11-Jan-19 21:34 47.644106 -122.426835 124 2954ft 136kts
11-Jan-19 21:35 47.623893 -122.387422 136 2608ft 118kts
11-Jan-19 21:36 47.595933 -122.357446 149 1765ft 126kts
11-Jan-19 21:37 47.571864 -122.337600 149 826ft 92kts
11-Jan-19 21:38 47.552571 -122.321421 152 277ft 73kts
11-Jan-19 21:39 47.534114 -122.305978 150 17ft 66kts
11-Jan-19 21:40 47.526561 -122.300774 237 16ft 0kts
11-Jan-19 21:41 47.526559 -122.300780 235 16ft 0kts
11-Jan-19 21:42 47.526240 -122.301796 156 14ft 6kts
11-Jan-19 21:43 47.526229 -122.301789 156 14ft 0kts

Navigation Log

Ident Type
Flight plan parsing failed, navigation log unavailable